EmailTwitter


Observations de surface / France / LFPO (07149)

Régions: Québec | Canada | États-Unis | Europe | France | UK | Elsewhere
Station
Affichage
Infos & localisation pour LFPO (07149) | Aide pour décoder les METARs

Observations prises le 2017-05-28 à 20H00 UTC à PARIS/ORLY, FR (LFPO)

Température: 25.0 Celsius

Point de rosée: 17.0 Celsius

Humidité relative: 61%

Indice Humidex: 30.

Vents: Est-sud-est à 7 km/h ou 4 noeuds.

Pression au niveau moyen de la mer: 101.30 kilopascals.

Observation METAR:

LFPO 282000Z 11004KT CAVOK 25/17 Q1013 NOSIG=